createdAt,value
2018-09-23T00:00:44.526Z,12.22
2018-09-23T00:03:13.130Z,12.21
2018-09-23T00:05:41.766Z,12.16
2018-09-23T00:08:10.326Z,12.17
2018-09-23T00:10:39.002Z,12.17
2018-09-23T00:13:07.781Z,12.14
2018-09-23T00:15:36.414Z,11.81
2018-09-23T00:18:04.958Z,12.11
2018-09-23T00:20:33.705Z,12.14
2018-09-23T00:23:03.778Z,12.17
2018-09-23T00:25:32.672Z,12.18
2018-09-23T00:28:01.266Z,12.18
2018-09-23T00:30:29.826Z,12.19
2018-09-23T00:32:58.362Z,12.23
2018-09-23T00:35:26.886Z,12.27
2018-09-23T00:37:55.684Z,12.32
2018-09-23T00:40:24.214Z,12.35
2018-09-23T00:42:52.982Z,12.36
2018-09-23T00:45:21.466Z,12.36
2018-09-23T00:47:50.010Z,12.37
2018-09-23T00:50:18.639Z,12.39
2018-09-23T00:52:47.162Z,12.39
2018-09-23T00:55:15.804Z,12.38
2018-09-23T00:57:44.286Z,12.37
2018-09-23T01:00:12.918Z,12.37
2018-09-23T01:02:41.382Z,12.36
2018-09-23T01:05:10.065Z,12.34
2018-09-23T01:07:39.893Z,12.33
2018-09-23T01:10:08.679Z,12.30
2018-09-23T01:12:37.227Z,12.09
2018-09-23T01:15:06.170Z,12.31
2018-09-23T01:17:34.838Z,12.30
2018-09-23T01:20:03.998Z,12.31
2018-09-23T01:22:32.674Z,12.28
2018-09-23T01:25:01.291Z,12.26
2018-09-23T01:27:29.993Z,12.24
2018-09-23T01:29:58.646Z,12.25
2018-09-23T01:32:27.166Z,12.25
2018-09-23T01:34:55.734Z,12.22
2018-09-23T01:37:24.286Z,12.24
2018-09-23T01:39:52.958Z,12.23
2018-09-23T01:42:21.484Z,12.23
2018-09-23T01:44:50.658Z,12.23
2018-09-23T01:47:19.147Z,12.26
2018-09-23T01:49:47.743Z,12.28
2018-09-23T01:52:16.263Z,12.14
2018-09-23T01:54:44.786Z,12.24
2018-09-23T01:57:13.422Z,11.86
2018-09-23T01:59:42.030Z,12.27
2018-09-23T02:02:10.717Z,12.26
2018-09-23T02:04:39.281Z,12.26
2018-09-23T02:07:07.822Z,12.26
2018-09-23T02:09:36.286Z,12.22
2018-09-23T02:12:04.786Z,12.21
2018-09-23T02:14:33.647Z,12.24
2018-09-23T02:17:02.245Z,12.21
2018-09-23T02:19:30.950Z,11.78
2018-09-23T02:21:59.418Z,12.22
2018-09-23T02:24:28.010Z,12.22
2018-09-23T02:26:56.543Z,12.18
2018-09-23T02:29:25.001Z,12.16
2018-09-23T02:31:53.709Z,12.16
2018-09-23T02:34:22.198Z,12.16
2018-09-23T02:36:50.839Z,12.14
2018-09-23T02:39:19.458Z,12.13
2018-09-23T02:41:48.152Z,12.12
2018-09-23T02:44:16.739Z,12.12
2018-09-23T02:46:45.408Z,12.14
2018-09-23T02:49:13.960Z,12.15
2018-09-23T02:51:42.471Z,12.16
2018-09-23T02:54:11.058Z,12.18
2018-09-23T02:56:39.586Z,12.18
2018-09-23T02:59:09.042Z,12.23
2018-09-23T03:01:37.509Z,12.22
2018-09-23T03:04:06.134Z,12.27
2018-09-23T03:06:34.582Z,12.28
2018-09-23T03:09:03.522Z,12.27
2018-09-23T03:11:32.494Z,12.17
2018-09-23T03:14:00.965Z,12.23
2018-09-23T03:16:29.890Z,12.19
2018-09-23T03:18:58.598Z,12.17
2018-09-23T03:21:27.254Z,12.20
2018-09-23T03:23:55.896Z,12.19
2018-09-23T03:26:24.492Z,12.19
2018-09-23T03:28:52.978Z,12.19
2018-09-23T03:31:21.550Z,12.19
2018-09-23T03:33:50.210Z,12.19
2018-09-23T03:36:18.708Z,12.21
2018-09-23T03:38:47.462Z,12.23
2018-09-23T03:41:16.202Z,12.22
2018-09-23T03:43:44.808Z,12.20
2018-09-23T03:46:13.370Z,12.20
2018-09-23T03:48:42.070Z,12.24
2018-09-23T03:51:10.667Z,12.27
2018-09-23T03:53:39.111Z,12.25
2018-09-23T03:56:07.882Z,12.25
2018-09-23T03:58:36.354Z,12.23
2018-09-23T04:01:04.923Z,12.24
2018-09-23T04:03:33.506Z,12.19
2018-09-23T04:06:02.004Z,12.20
2018-09-23T04:08:30.638Z,12.24
2018-09-23T04:10:59.175Z,12.23
2018-09-23T04:13:27.931Z,12.22
2018-09-23T04:15:56.562Z,12.27
2018-09-23T04:18:26.141Z,12.26
2018-09-23T04:20:54.628Z,12.27
2018-09-23T04:23:23.242Z,12.24
2018-09-23T04:25:51.818Z,12.24
2018-09-23T04:28:20.400Z,12.25
2018-09-23T04:30:49.104Z,12.24
2018-09-23T04:33:17.618Z,12.24
2018-09-23T04:35:46.254Z,12.23
2018-09-23T04:38:14.811Z,12.22
2018-09-23T04:40:43.356Z,12.25
2018-09-23T04:43:11.983Z,12.28
2018-09-23T04:45:40.463Z,12.27
2018-09-23T04:48:09.849Z,12.33
2018-09-23T04:50:38.350Z,12.34
2018-09-23T04:53:07.029Z,12.35
2018-09-23T04:55:35.550Z,12.38
2018-09-23T04:58:04.116Z,12.40
2018-09-23T05:00:32.602Z,12.50
2018-09-23T05:03:01.099Z,12.51
2018-09-23T05:05:30.518Z,12.48
2018-09-23T05:07:59.075Z,12.48
2018-09-23T05:10:27.887Z,12.27
2018-09-23T05:12:56.496Z,12.51
2018-09-23T05:15:25.198Z,12.52
2018-09-23T05:17:53.770Z,12.52
2018-09-23T05:20:22.234Z,12.53
2018-09-23T05:22:50.735Z,12.50
2018-09-23T05:25:19.258Z,12.50
2018-09-23T05:27:48.022Z,12.20
2018-09-23T05:30:16.583Z,12.51
2018-09-23T05:32:45.437Z,12.51
2018-09-23T05:35:14.009Z,12.51
2018-09-23T05:37:42.591Z,12.53
2018-09-23T05:40:11.214Z,12.44
2018-09-23T05:42:39.812Z,12.47
2018-09-23T05:45:09.355Z,12.47
2018-09-23T05:47:37.813Z,12.46
2018-09-23T05:50:06.970Z,12.46
2018-09-23T05:52:35.414Z,12.50
2018-09-23T05:55:04.354Z,12.54
2018-09-23T05:57:32.947Z,12.54
2018-09-23T06:00:01.587Z,12.56
2018-09-23T06:02:30.216Z,12.58
2018-09-23T06:04:58.805Z,12.61
2018-09-23T06:07:27.538Z,12.61
2018-09-23T06:09:56.077Z,12.63
2018-09-23T06:12:24.929Z,12.65
2018-09-23T06:14:53.430Z,12.63
2018-09-23T06:17:21.946Z,12.65
2018-09-23T06:19:50.638Z,12.64
2018-09-23T06:22:19.122Z,12.68
2018-09-23T06:24:47.758Z,12.29
2018-09-23T06:27:16.306Z,12.75
2018-09-23T06:29:44.999Z,12.80
2018-09-23T06:32:13.621Z,12.80
2018-09-23T06:34:42.237Z,12.76
2018-09-23T06:37:10.830Z,12.79
2018-09-23T06:39:39.290Z,12.85
2018-09-23T06:42:08.067Z,12.78
2018-09-23T06:44:36.737Z,12.71
2018-09-23T06:47:05.518Z,12.77
2018-09-23T06:49:34.089Z,12.81
2018-09-23T06:52:02.763Z,12.80
2018-09-23T06:54:31.287Z,12.82
2018-09-23T06:57:00.060Z,12.75
2018-09-23T06:59:28.546Z,12.78
2018-09-23T07:01:56.985Z,12.75
2018-09-23T07:04:25.661Z,12.71
2018-09-23T07:06:54.118Z,12.78
2018-09-23T07:09:22.777Z,12.79
2018-09-23T07:11:51.371Z,12.86
2018-09-23T07:14:20.003Z,12.93
2018-09-23T07:16:48.483Z,13.00
2018-09-23T07:19:17.066Z,12.98
2018-09-23T07:21:45.733Z,12.98
2018-09-23T07:24:14.442Z,12.98
2018-09-23T07:26:43.064Z,12.97
2018-09-23T07:29:11.550Z,13.01
2018-09-23T07:31:40.078Z,13.07
2018-09-23T07:34:08.808Z,13.06
2018-09-23T07:36:37.322Z,12.99
2018-09-23T07:39:07.326Z,13.05
2018-09-23T07:41:36.530Z,13.10
2018-09-23T07:44:05.334Z,12.96
2018-09-23T07:46:33.812Z,12.89
2018-09-23T07:49:02.660Z,13.27
2018-09-23T07:51:31.125Z,13.24
2018-09-23T07:53:59.798Z,13.21
2018-09-23T07:56:28.420Z,13.18
2018-09-23T07:58:56.892Z,13.17
2018-09-23T08:01:25.537Z,13.15
2018-09-23T08:03:54.151Z,13.17
2018-09-23T08:06:22.723Z,13.22
2018-09-23T08:08:51.198Z,13.28
2018-09-23T08:11:19.848Z,13.29
2018-09-23T08:13:48.532Z,13.30
2018-09-23T08:16:16.902Z,13.27
2018-09-23T08:18:45.734Z,13.24
2018-09-23T08:21:14.420Z,13.32
2018-09-23T08:23:43.007Z,13.38
2018-09-23T08:26:11.536Z,13.40
2018-09-23T08:28:40.111Z,13.39
2018-09-23T08:31:08.702Z,13.36
2018-09-23T08:33:37.334Z,13.51
2018-09-23T08:36:06.037Z,13.63
2018-09-23T08:38:34.518Z,13.62
2018-09-23T08:41:03.252Z,13.75
2018-09-23T08:43:31.742Z,13.84
2018-09-23T08:46:00.250Z,13.80
2018-09-23T08:48:28.828Z,13.64
2018-09-23T08:50:57.486Z,13.64
2018-09-23T08:53:26.189Z,13.58
2018-09-23T08:55:54.817Z,13.73
2018-09-23T08:58:23.722Z,13.73
2018-09-23T09:00:52.190Z,13.70
2018-09-23T09:03:20.929Z,13.71
2018-09-23T09:05:49.454Z,13.81
2018-09-23T09:08:18.051Z,13.80
2018-09-23T09:10:46.714Z,13.80
2018-09-23T09:13:15.193Z,13.71
2018-09-23T09:15:43.898Z,13.89
2018-09-23T09:18:12.450Z,13.90
2018-09-23T09:20:41.379Z,14.00
2018-09-23T09:23:10.176Z,13.93
2018-09-23T09:25:38.782Z,13.95
2018-09-23T09:28:07.410Z,13.94
2018-09-23T09:30:35.878Z,13.93
2018-09-23T09:33:04.622Z,13.97
2018-09-23T09:35:33.112Z,14.09
2018-09-23T09:38:01.955Z,13.98
2018-09-23T09:40:30.503Z,14.06
2018-09-23T09:42:59.065Z,14.28
2018-09-23T09:45:27.900Z,14.44
2018-09-23T09:47:56.722Z,14.40
2018-09-23T09:50:25.987Z,14.40
2018-09-23T09:52:54.442Z,14.47
2018-09-23T09:55:23.148Z,14.52
2018-09-23T09:57:51.627Z,14.68
2018-09-23T10:00:25.438Z,14.70
2018-09-23T10:02:54.038Z,14.53
2018-09-23T10:05:22.602Z,14.58
2018-09-23T10:07:51.478Z,14.49
2018-09-23T10:10:20.500Z,14.51
2018-09-23T10:12:49.069Z,14.47
2018-09-23T10:15:17.680Z,14.33
2018-09-23T10:17:46.474Z,14.29
2018-09-23T10:20:15.223Z,14.16
2018-09-23T10:22:43.893Z,14.27
2018-09-23T10:25:12.326Z,14.20
2018-09-23T10:27:40.985Z,14.16
2018-09-23T10:30:10.347Z,14.22
2018-09-23T10:32:39.294Z,14.38
2018-09-23T10:35:08.151Z,14.45
2018-09-23T10:37:37.398Z,14.56
2018-09-23T10:40:06.871Z,14.79
2018-09-23T10:42:35.698Z,14.85
2018-09-23T10:45:04.521Z,14.80
2018-09-23T10:47:33.103Z,14.66
2018-09-23T10:50:01.615Z,14.46
2018-09-23T10:52:30.177Z,14.38
2018-09-23T10:54:58.860Z,14.32
2018-09-23T10:57:27.452Z,14.39
2018-09-23T10:59:56.957Z,14.33
2018-09-23T11:02:25.410Z,14.27
2018-09-23T11:04:54.037Z,14.25
2018-09-23T11:07:22.656Z,14.36
2018-09-23T11:09:51.491Z,14.42
2018-09-23T11:12:19.974Z,14.47
2018-09-23T11:14:48.561Z,14.36
2018-09-23T11:17:17.587Z,14.44
2018-09-23T11:19:46.070Z,14.47
2018-09-23T11:22:15.510Z,14.51
2018-09-23T11:24:44.182Z,14.39
2018-09-23T11:27:12.884Z,14.33
2018-09-23T11:29:41.602Z,14.40
2018-09-23T11:32:10.074Z,14.40
2018-09-23T11:34:38.663Z,14.47
2018-09-23T11:37:07.300Z,14.55
2018-09-23T11:39:36.254Z,14.55
2018-09-23T11:42:04.816Z,14.48
2018-09-23T11:44:33.889Z,14.41
2018-09-23T11:47:02.374Z,14.31
2018-09-23T11:49:30.926Z,14.19
2018-09-23T11:51:59.470Z,14.29
2018-09-23T11:54:28.047Z,14.40
2018-09-23T11:56:56.698Z,14.48
2018-09-23T11:59:25.250Z,14.50
2018-09-23T12:01:55.623Z,14.44
2018-09-23T12:04:24.154Z,14.45
2018-09-23T12:06:52.919Z,14.43
2018-09-23T12:09:21.387Z,14.38
2018-09-23T12:11:49.900Z,14.25
2018-09-23T12:14:18.596Z,13.96
2018-09-23T12:16:47.075Z,14.22
2018-09-23T12:19:15.782Z,14.30
2018-09-23T12:21:44.309Z,14.26
2018-09-23T12:24:13.112Z,14.22
2018-09-23T12:26:41.578Z,14.10
2018-09-23T12:29:10.576Z,14.09
2018-09-23T12:31:39.234Z,14.15
2018-09-23T12:34:07.734Z,14.26
2018-09-23T12:36:36.305Z,14.27
2018-09-23T12:39:07.358Z,14.11
2018-09-23T12:41:35.850Z,14.02
2018-09-23T12:44:04.371Z,13.97
2018-09-23T12:46:33.422Z,13.78
2018-09-23T12:49:02.180Z,13.70
2018-09-23T12:51:30.938Z,13.72
2018-09-23T12:53:59.586Z,13.88
2018-09-23T12:56:28.098Z,14.00
2018-09-23T12:58:57.310Z,14.01
2018-09-23T13:01:25.814Z,14.05
2018-09-23T13:03:54.307Z,14.12
2018-09-23T13:06:22.978Z,14.20
2018-09-23T13:08:51.773Z,14.20
2018-09-23T13:11:20.270Z,14.00
2018-09-23T13:13:49.766Z,14.01
2018-09-23T13:16:18.227Z,13.80
2018-09-23T13:18:46.853Z,13.79
2018-09-23T13:21:15.450Z,13.81
2018-09-23T13:23:44.013Z,13.94
2018-09-23T13:26:12.767Z,13.61
2018-09-23T13:28:41.280Z,14.00
2018-09-23T13:31:10.184Z,13.89
2018-09-23T13:33:38.854Z,14.24
2018-09-23T13:36:07.519Z,14.25
2018-09-23T13:38:35.991Z,14.20
2018-09-23T13:41:04.482Z,14.25
2018-09-23T13:43:33.270Z,14.16
2018-09-23T13:46:01.839Z,14.23
2018-09-23T13:48:30.894Z,14.18
2018-09-23T13:50:59.470Z,14.17
2018-09-23T13:53:28.620Z,14.19
2018-09-23T13:55:57.196Z,14.21
2018-09-23T13:58:25.870Z,14.23
2018-09-23T14:00:54.359Z,14.28
2018-09-23T14:03:22.839Z,14.25
2018-09-23T14:05:51.817Z,14.32
2018-09-23T14:08:20.308Z,14.28
2018-09-23T14:10:50.568Z,14.19
2018-09-23T14:13:19.058Z,14.17
2018-09-23T14:15:47.735Z,14.22
2018-09-23T14:18:16.286Z,14.25
2018-09-23T14:20:44.794Z,14.25
2018-09-23T14:23:13.262Z,14.25
2018-09-23T14:25:41.786Z,14.21
2018-09-23T14:28:10.453Z,13.53
2018-09-23T14:30:39.245Z,13.99
2018-09-23T14:33:08.076Z,13.98
2018-09-23T14:35:36.773Z,13.98
2018-09-23T14:38:05.372Z,13.99
2018-09-23T14:40:33.898Z,14.03
2018-09-23T14:43:02.419Z,14.06
2018-09-23T14:45:31.109Z,14.06
2018-09-23T14:47:59.622Z,14.08
2018-09-23T14:50:28.422Z,13.60
2018-09-23T14:52:57.055Z,13.94
2018-09-23T14:55:25.907Z,13.90
2018-09-23T14:57:54.428Z,13.85
2018-09-23T15:00:22.949Z,13.76
2018-09-23T15:02:51.590Z,13.59
2018-09-23T15:05:20.279Z,13.62
2018-09-23T15:07:49.131Z,13.61
2018-09-23T15:10:17.595Z,13.64
2018-09-23T15:12:46.229Z,13.73
2018-09-23T15:15:14.817Z,13.82
2018-09-23T15:17:43.430Z,13.88
2018-09-23T15:20:12.978Z,13.75
2018-09-23T15:22:41.522Z,13.83
2018-09-23T15:25:10.154Z,13.73
2018-09-23T15:27:38.757Z,13.74
2018-09-23T15:30:07.542Z,13.48
2018-09-23T15:32:36.040Z,13.67
2018-09-23T15:35:04.714Z,13.59
2018-09-23T15:37:33.229Z,13.54
2018-09-23T15:40:01.831Z,13.44
2018-09-23T15:42:30.627Z,13.16
2018-09-23T15:44:59.244Z,13.42
2018-09-23T15:47:27.966Z,13.40
2018-09-23T15:49:56.506Z,13.38
2018-09-23T15:52:25.332Z,13.35
2018-09-23T15:54:53.877Z,13.32
2018-09-23T15:57:22.534Z,13.26
2018-09-23T15:59:51.014Z,13.20
2018-09-23T16:02:19.523Z,13.17
2018-09-23T16:04:48.420Z,13.16
2018-09-23T16:07:16.902Z,13.13
2018-09-23T16:09:45.805Z,13.05
2018-09-23T16:12:14.414Z,13.01
2018-09-23T16:14:43.060Z,13.01
2018-09-23T16:17:11.532Z,13.00
2018-09-23T16:19:40.055Z,12.93
2018-09-23T16:22:08.662Z,12.87
2018-09-23T16:24:37.118Z,12.86
2018-09-23T16:27:05.917Z,12.52
2018-09-23T16:29:34.462Z,12.73
2018-09-23T16:32:03.286Z,12.66
2018-09-23T16:34:31.738Z,12.61
2018-09-23T16:37:00.406Z,12.52
2018-09-23T16:39:29.254Z,12.36
2018-09-23T16:41:57.882Z,12.44
2018-09-23T16:44:26.871Z,12.39
2018-09-23T16:46:55.340Z,12.29
2018-09-23T16:49:24.375Z,12.30
2018-09-23T16:51:52.847Z,12.23
2018-09-23T16:54:21.433Z,12.17
2018-09-23T16:56:50.046Z,12.14
2018-09-23T16:59:18.507Z,12.08
2018-09-23T17:01:47.406Z,12.04
2018-09-23T17:04:15.990Z,11.99
2018-09-23T17:06:44.974Z,11.91
2018-09-23T17:09:13.438Z,11.84
2018-09-23T17:11:42.204Z,11.77
2018-09-23T17:14:10.714Z,11.73
2018-09-23T17:16:39.308Z,11.66
2018-09-23T17:19:08.108Z,11.55
2018-09-23T17:21:36.650Z,11.47
2018-09-23T17:24:05.682Z,11.43
2018-09-23T17:26:34.382Z,11.36
2018-09-23T17:29:03.146Z,11.33
2018-09-23T17:31:31.879Z,11.26
2018-09-23T17:34:00.460Z,11.21
2018-09-23T17:36:28.957Z,11.11
2018-09-23T17:38:57.442Z,11.01
2018-09-23T17:41:26.493Z,10.93
2018-09-23T17:43:55.022Z,10.89
2018-09-23T17:46:24.960Z,10.89
2018-09-23T17:48:53.511Z,10.63
2018-09-23T17:51:22.417Z,10.87
2018-09-23T17:53:50.902Z,10.81
2018-09-23T17:56:19.597Z,10.72
2018-09-23T17:58:48.352Z,10.64
2018-09-23T18:01:16.935Z,10.54
2018-09-23T18:03:45.678Z,10.48
2018-09-23T18:06:14.203Z,10.36
2018-09-23T18:08:42.906Z,10.27
2018-09-23T18:11:11.639Z,10.25
2018-09-23T18:13:40.278Z,10.22
2018-09-23T18:16:09.097Z,10.18
2018-09-23T18:18:37.655Z,10.11
2018-09-23T18:21:06.995Z,9.70
2018-09-23T18:23:35.512Z,9.93
2018-09-23T18:26:04.527Z,9.83
2018-09-23T18:28:33.095Z,9.76
2018-09-23T18:31:01.990Z,9.62
2018-09-23T18:33:30.615Z,9.49
2018-09-23T18:35:59.196Z,9.41
2018-09-23T18:38:27.728Z,9.30
2018-09-23T18:40:57.019Z,9.24
2018-09-23T18:43:25.530Z,9.19
2018-09-23T18:45:54.058Z,9.12
2018-09-23T18:48:22.750Z,9.06
2018-09-23T18:50:51.359Z,9.00
2018-09-23T18:53:24.204Z,8.97
2018-09-23T18:55:53.790Z,8.92
2018-09-23T18:58:22.461Z,8.86
2018-09-23T19:00:51.138Z,8.81
2018-09-23T19:03:20.035Z,8.73
2018-09-23T19:05:48.503Z,8.66
2018-09-23T19:08:17.178Z,8.57
2018-09-23T19:10:45.670Z,8.50
2018-09-23T19:13:19.519Z,8.44
2018-09-23T19:15:52.458Z,8.34
2018-09-23T19:18:21.034Z,8.29
2018-09-23T19:20:49.785Z,8.24
2018-09-23T19:23:18.315Z,8.19
2018-09-23T19:25:46.980Z,8.15
2018-09-23T19:28:15.666Z,8.09
2018-09-23T19:30:44.165Z,8.02
2018-09-23T19:33:12.815Z,7.97
2018-09-23T19:35:41.414Z,7.93
2018-09-23T19:38:09.934Z,7.90
2018-09-23T19:40:38.568Z,7.87
2018-09-23T19:43:07.040Z,7.84
2018-09-23T19:45:35.702Z,7.81
2018-09-23T19:48:04.300Z,7.83
2018-09-23T19:50:33.212Z,7.82
2018-09-23T19:53:01.663Z,7.84
2018-09-23T19:55:30.239Z,7.86
2018-09-23T19:57:58.729Z,7.98
2018-09-23T20:00:27.211Z,8.30
2018-09-23T20:02:55.762Z,8.67
2018-09-23T20:05:24.306Z,8.96
2018-09-23T20:07:52.970Z,9.02
2018-09-23T20:10:21.761Z,8.90
2018-09-23T20:12:50.593Z,8.84
2018-09-23T20:15:19.457Z,8.80
2018-09-23T20:17:48.661Z,8.72
2018-09-23T20:20:17.141Z,8.72
2018-09-23T20:22:45.591Z,8.66
2018-09-23T20:25:14.363Z,8.58
2018-09-23T20:27:42.822Z,8.53
2018-09-23T20:30:11.758Z,8.47
2018-09-23T20:32:40.237Z,8.44
2018-09-23T20:35:09.046Z,8.42
2018-09-23T20:37:38.574Z,8.44
2018-09-23T20:40:07.431Z,8.43
2018-09-23T20:42:36.020Z,8.45
2018-09-23T20:45:04.860Z,8.44
2018-09-23T20:47:34.515Z,8.36
2018-09-23T20:50:03.098Z,8.32
2018-09-23T20:52:31.988Z,8.32
2018-09-23T20:55:00.619Z,8.31
2018-09-23T20:57:29.406Z,8.28
2018-09-23T20:59:58.978Z,8.34
2018-09-23T21:02:27.859Z,8.47
2018-09-23T21:04:56.342Z,8.57
2018-09-23T21:07:25.058Z,8.64
2018-09-23T21:09:53.773Z,8.66
2018-09-23T21:12:22.240Z,8.70
2018-09-23T21:14:51.082Z,8.77
2018-09-23T21:17:19.634Z,9.08
2018-09-23T21:19:48.335Z,9.16
2018-09-23T21:22:16.931Z,9.11
2018-09-23T21:24:45.579Z,9.00
2018-09-23T21:27:14.202Z,8.55
2018-09-23T21:29:42.678Z,8.70
2018-09-23T21:32:11.566Z,8.56
2018-09-23T21:34:40.258Z,8.44
2018-09-23T21:37:09.119Z,8.32
2018-09-23T21:39:37.632Z,8.21
2018-09-23T21:42:06.302Z,8.06
2018-09-23T21:44:34.794Z,7.96
2018-09-23T21:47:03.354Z,7.83
2018-09-23T21:49:32.076Z,7.75
2018-09-23T21:52:00.650Z,7.69
2018-09-23T21:54:29.529Z,7.62
2018-09-23T21:56:58.113Z,7.54
2018-09-23T21:59:26.851Z,7.45
2018-09-23T22:01:55.458Z,7.38
2018-09-23T22:04:24.054Z,7.31
2018-09-23T22:06:53.165Z,7.24
2018-09-23T22:09:21.807Z,7.15
2018-09-23T22:11:50.434Z,6.42
2018-09-23T22:14:18.938Z,7.01
2018-09-23T22:16:47.826Z,6.93
2018-09-23T22:19:16.383Z,6.86
2018-09-23T22:21:44.992Z,6.79
2018-09-23T22:24:13.650Z,6.74
2018-09-23T22:26:42.150Z,6.69
2018-09-23T22:29:10.811Z,6.66
2018-09-23T22:31:39.334Z,6.62
2018-09-23T22:34:08.290Z,6.57
2018-09-23T22:36:36.734Z,6.51
2018-09-23T22:39:07.164Z,6.45
2018-09-23T22:41:35.638Z,6.42
2018-09-23T22:44:04.222Z,6.39
2018-09-23T22:46:32.805Z,6.34
2018-09-23T22:49:01.334Z,6.29
2018-09-23T22:51:30.111Z,6.26
2018-09-23T22:53:58.677Z,6.23
2018-09-23T22:56:27.537Z,6.19
2018-09-23T22:58:56.167Z,6.14
2018-09-23T23:01:24.902Z,6.03
2018-09-23T23:03:53.422Z,6.06
2018-09-23T23:06:22.103Z,6.01
2018-09-23T23:08:50.610Z,5.98
2018-09-23T23:11:19.288Z,5.94
2018-09-23T23:13:48.073Z,5.91
2018-09-23T23:16:16.595Z,5.85
2018-09-23T23:18:45.446Z,5.80
2018-09-23T23:21:14.130Z,5.77
2018-09-23T23:23:42.764Z,5.75
2018-09-23T23:26:11.216Z,5.63
2018-09-23T23:28:39.667Z,5.64
2018-09-23T23:31:08.586Z,5.62
2018-09-23T23:33:37.146Z,5.57
2018-09-23T23:36:06.042Z,5.55
2018-09-23T23:38:34.548Z,5.55
2018-09-23T23:41:03.117Z,5.57
2018-09-23T23:43:31.719Z,5.58
2018-09-23T23:46:00.282Z,5.60
2018-09-23T23:48:28.997Z,5.59
2018-09-23T23:50:57.462Z,5.61
2018-09-23T23:53:26.391Z,4.95
2018-09-23T23:55:54.846Z,5.62
2018-09-23T23:58:23.640Z,5.66
